Time;durP1;ratioP1;P1;durP2;ratioP2;P2;SDS_P1;SDS_P2;PMS_P1;PMS_P2;Temp;Humidity;BMP_temperature;BMP_pressure;BME280_temperature;BME280_humidity;BME280_pressure;Samples;Min_cycle;Max_cycle;Signal;HPM_P1;HPM_P2
2023/12/29 00:01:28;;;;;;;0.10;0.10;;;;;;;;;;5011992;28;20133;-78
2023/12/29 00:03:55;;;;;;;0.63;0.63;;;;;;;;;;5010654;28;20457;-78
2023/12/29 00:06:22;;;;;;;0.10;0.10;;;;;;;;;;5010054;28;20062;-78
2023/12/29 00:08:48;;;;;;;0.13;0.13;;;;;;;;;;5010434;28;20062;-78
2023/12/29 00:11:19;;;;;;;0.10;0.10;;;;;;;;;;5010049;28;20057;-78
2023/12/29 00:13:46;;;;;;;0.10;0.10;;;;;;;;;;5007851;28;20050;-78
2023/12/29 00:16:12;;;;;;;0.10;0.10;;;;;;;;;;5010411;28;20060;-78
2023/12/29 00:18:39;;;;;;;0.10;0.10;;;;;;;;;;5012304;28;20054;-78
2023/12/29 00:21:05;;;;;;;0.15;0.15;;;;;;;;;;5011161;28;20125;-78
2023/12/29 00:23:33;;;;;;;0.10;0.10;;;;;;;;;;5010077;28;20050;-78
2023/12/29 00:25:59;;;;;;;0.10;0.10;;;;;;;;;;5011774;28;20138;-78
2023/12/29 00:28:26;;;;;;;0.10;0.10;;;;;;;;;;5009572;28;20051;-78
2023/12/29 00:30:52;;;;;;;0.10;0.10;;;;;;;;;;5012745;28;20049;-78
2023/12/29 00:33:28;;;;;;;0.10;0.10;;;;;;;;;;5011386;28;20595;-78
2023/12/29 00:35:55;;;;;;;0.20;0.20;;;;;;;;;;5011885;28;20046;-78
2023/12/29 00:38:21;;;;;;;0.10;0.10;;;;;;;;;;5005879;28;20062;-78
2023/12/29 00:40:48;;;;;;;0.73;0.73;;;;;;;;;;5012669;28;20066;-78
2023/12/29 00:43:14;;;;;;;0.10;0.10;;;;;;;;;;5007634;28;20140;-79
2023/12/29 00:45:41;;;;;;;0.10;0.10;;;;;;;;;;5009336;28;20058;-78
2023/12/29 00:48:07;;;;;;;0.10;0.10;;;;;;;;;;5012295;28;20146;-78
2023/12/29 00:50:34;;;;;;;0.10;0.10;;;;;;;;;;5010892;28;20061;-78
2023/12/29 00:53:00;;;;;;;0.10;0.10;;;;;;;;;;5008815;28;20057;-78
2023/12/29 00:55:27;;;;;;;0.30;0.30;;;;;;;;;;5009714;28;20049;-78
2023/12/29 00:57:54;;;;;;;0.10;0.10;;;;;;;;;;5010649;28;20046;-78
2023/12/29 01:00:21;;;;;;;0.10;0.10;;;;;;;;;;5009053;28;20047;-78
2023/12/29 01:02:47;;;;;;;0.17;0.17;;;;;;;;;;5015880;28;20472;-78
2023/12/29 01:05:17;;;;;;;0.10;0.10;;;;;;;;;;5011313;28;20057;-78
2023/12/29 01:07:44;;;;;;;0.38;0.38;;;;;;;;;;5007872;28;20140;-78
2023/12/29 01:10:10;;;;;;;0.10;0.10;;;;;;;;;;5008391;28;20070;-78
2023/12/29 01:12:37;;;;;;;0.10;0.10;;;;;;;;;;5010782;28;20125;-79
2023/12/29 01:15:04;;;;;;;0.10;0.10;;;;;;;;;;5013120;28;20034;-79
2023/12/29 01:17:30;;;;;;;0.10;0.10;;;;;;;;;;5011013;28;20146;-79
2023/12/29 01:19:57;;;;;;;0.10;0.10;;;;;;;;;;5007999;28;20055;-80
2023/12/29 01:22:24;;;;;;;0.10;0.10;;;;;;;;;;5007598;28;20050;-79
2023/12/29 01:24:50;;;;;;;0.10;0.10;;;;;;;;;;5011636;28;20058;-79
2023/12/29 01:27:17;;;;;;;0.10;0.10;;;;;;;;;;5010917;28;20089;-78
2023/12/29 01:29:43;;;;;;;0.10;0.10;;;;;;;;;;5008488;28;20062;-78
2023/12/29 01:32:10;;;;;;;0.10;0.10;;;;;;;;;;5012040;28;20059;-78
2023/12/29 01:34:37;;;;;;;0.10;0.10;;;;;;;;;;5010767;28;20101;-78
2023/12/29 01:37:04;;;;;;;0.10;0.10;;;;;;;;;;5010552;28;20101;-78
2023/12/29 01:39:30;;;;;;;0.10;0.10;;;;;;;;;;5012413;28;20591;-78
2023/12/29 01:41:57;;;;;;;4.20;1.75;;;;;;;;;;5010345;28;20105;-78
2023/12/29 01:44:24;;;;;;;0.10;0.10;;;;;;;;;;5009161;28;20058;-78
2023/12/29 01:46:52;;;;;;;0.10;0.10;;;;;;;;;;5009604;28;20093;-78
2023/12/29 01:49:19;;;;;;;0.10;0.10;;;;;;;;;;5008713;28;20063;-78
2023/12/29 01:51:49;;;;;;;0.10;0.10;;;;;;;;;;5011309;28;20117;-79
2023/12/29 01:54:16;;;;;;;0.10;0.10;;;;;;;;;;5009691;28;20049;-78
2023/12/29 01:56:43;;;;;;;0.10;0.10;;;;;;;;;;5013655;28;20062;-79
2023/12/29 01:59:09;;;;;;;0.10;0.10;;;;;;;;;;5009598;28;20114;-79
2023/12/29 02:01:48;;;;;;;0.20;0.20;;;;;;;;;;5010193;28;20050;-78
2023/12/29 02:04:15;;;;;;;0.10;0.10;;;;;;;;;;5011915;28;20067;-78
2023/12/29 02:06:41;;;;;;;0.10;0.10;;;;;;;;;;5012531;28;20211;-78
2023/12/29 02:09:08;;;;;;;1.67;0.43;;;;;;;;;;5014199;28;20061;-79
2023/12/29 02:11:35;;;;;;;0.10;0.10;;;;;;;;;;5011174;28;20069;-78
2023/12/29 02:14:01;;;;;;;0.10;0.10;;;;;;;;;;5014612;28;20105;-79
2023/12/29 02:16:33;;;;;;;0.10;0.10;;;;;;;;;;5012273;28;20090;-79
2023/12/29 02:19:01;;;;;;;0.10;0.10;;;;;;;;;;5012483;28;20057;-78
2023/12/29 02:21:27;;;;;;;0.10;0.10;;;;;;;;;;5013960;28;20057;-79
2023/12/29 02:23:54;;;;;;;0.10;0.10;;;;;;;;;;5011356;28;20117;-79
2023/12/29 02:26:22;;;;;;;0.10;0.10;;;;;;;;;;5012971;28;20123;-79
2023/12/29 02:28:52;;;;;;;0.10;0.10;;;;;;;;;;5008661;28;20065;-79
2023/12/29 02:31:20;;;;;;;0.10;0.10;;;;;;;;;;5012172;28;20693;-79
2023/12/29 02:33:47;;;;;;;0.10;0.10;;;;;;;;;;5012416;28;20771;-78
2023/12/29 02:36:16;;;;;;;0.10;0.10;;;;;;;;;;5013125;28;20676;-78
2023/12/29 02:38:42;;;;;;;0.10;0.10;;;;;;;;;;5011882;28;20139;-79
2023/12/29 02:41:09;;;;;;;0.10;0.10;;;;;;;;;;5012010;28;20065;-79
2023/12/29 02:43:36;;;;;;;0.17;0.17;;;;;;;;;;5005161;28;20528;-78
2023/12/29 02:46:02;;;;;;;0.10;0.10;;;;;;;;;;5013345;28;20061;-79
2023/12/29 02:48:29;;;;;;;0.10;0.10;;;;;;;;;;5016276;28;20113;-79
2023/12/29 02:50:56;;;;;;;0.10;0.10;;;;;;;;;;5012688;28;20082;-79
2023/12/29 02:53:22;;;;;;;0.10;0.10;;;;;;;;;;5012401;28;20065;-78
2023/12/29 02:55:48;;;;;;;0.10;0.10;;;;;;;;;;5012019;28;20134;-78
2023/12/29 02:58:15;;;;;;;0.10;0.10;;;;;;;;;;5012429;28;20057;-78
2023/12/29 03:00:41;;;;;;;0.10;0.10;;;;;;;;;;5011600;28;20050;-79
2023/12/29 03:03:08;;;;;;;0.10;0.10;;;;;;;;;;5012141;28;20172;-79
2023/12/29 03:05:35;;;;;;;0.10;0.10;;;;;;;;;;5011252;28;20058;-79
2023/12/29 03:08:04;;;;;;;0.10;0.10;;;;;;;;;;5009122;28;20145;-79
2023/12/29 03:10:30;;;;;;;0.10;0.10;;;;;;;;;;5013419;28;20050;-79
2023/12/29 03:12:57;;;;;;;18.20;1.10;;;;;;;;;;5012631;28;20113;-79
2023/12/29 03:15:23;;;;;;;0.10;0.10;;;;;;;;;;5011254;28;20137;-79
2023/12/29 03:17:50;;;;;;;2.08;1.20;;;;;;;;;;5011611;28;20058;-78
2023/12/29 03:20:16;;;;;;;0.10;0.10;;;;;;;;;;5011002;28;20097;-79
2023/12/29 03:22:42;;;;;;;0.10;0.10;;;;;;;;;;5012521;28;20947;-79
2023/12/29 03:25:09;;;;;;;0.10;0.10;;;;;;;;;;5009870;28;20065;-79
2023/12/29 03:27:36;;;;;;;0.10;0.10;;;;;;;;;;5009543;28;20058;-79
2023/12/29 03:30:02;;;;;;;0.10;0.10;;;;;;;;;;5009349;28;20065;-79
2023/12/29 03:32:29;;;;;;;0.10;0.10;;;;;;;;;;5008956;28;20140;-78
2023/12/29 03:34:55;;;;;;;0.10;0.10;;;;;;;;;;5009155;28;20103;-79
2023/12/29 03:37:22;;;;;;;0.10;0.10;;;;;;;;;;5010177;28;20058;-79
2023/12/29 03:39:49;;;;;;;0.15;0.15;;;;;;;;;;5016159;28;20165;-79
2023/12/29 03:42:15;;;;;;;0.10;0.10;;;;;;;;;;5009855;28;20984;-79
2023/12/29 03:44:41;;;;;;;0.10;0.10;;;;;;;;;;5009876;28;20054;-79
2023/12/29 03:47:10;;;;;;;0.10;0.10;;;;;;;;;;5011451;28;20698;-78
2023/12/29 03:49:36;;;;;;;0.10;0.10;;;;;;;;;;5010356;28;20077;-79
2023/12/29 03:52:03;;;;;;;0.10;0.10;;;;;;;;;;5009064;28;20105;-78
2023/12/29 03:54:30;;;;;;;0.10;0.10;;;;;;;;;;5009737;28;20030;-79
2023/12/29 03:56:56;;;;;;;0.10;0.10;;;;;;;;;;5006769;28;20054;-79
2023/12/29 03:59:23;;;;;;;0.10;0.10;;;;;;;;;;5007750;28;20083;-79
2023/12/29 04:01:49;;;;;;;0.10;0.10;;;;;;;;;;5007190;28;20113;-79
2023/12/29 04:04:16;;;;;;;0.10;0.10;;;;;;;;;;5010096;28;20100;-80
2023/12/29 04:06:42;;;;;;;0.10;0.10;;;;;;;;;;5010212;28;20053;-80
2023/12/29 04:09:09;;;;;;;0.10;0.10;;;;;;;;;;5006131;28;20105;-79
2023/12/29 04:11:35;;;;;;;0.10;0.10;;;;;;;;;;5010379;28;20050;-79
2023/12/29 04:14:02;;;;;;;0.10;0.10;;;;;;;;;;5016700;28;20788;-79
2023/12/29 04:16:28;;;;;;;0.10;0.10;;;;;;;;;;5009758;28;20058;-79
2023/12/29 04:18:54;;;;;;;0.10;0.10;;;;;;;;;;5011050;28;20065;-79
2023/12/29 04:21:21;;;;;;;0.10;0.10;;;;;;;;;;5011170;28;20102;-79
2023/12/29 04:23:48;;;;;;;0.10;0.10;;;;;;;;;;5011107;28;20054;-79
2023/12/29 04:26:14;;;;;;;0.10;0.10;;;;;;;;;;5009835;28;20062;-80
2023/12/29 04:28:42;;;;;;;0.45;0.45;;;;;;;;;;5009739;28;20137;-79
2023/12/29 04:31:08;;;;;;;0.10;0.10;;;;;;;;;;5011338;28;20054;-79
2023/12/29 04:33:34;;;;;;;0.10;0.10;;;;;;;;;;5010637;28;20404;-80
2023/12/29 04:36:01;;;;;;;0.10;0.10;;;;;;;;;;5009453;28;20182;-76
2023/12/29 04:38:28;;;;;;;0.10;0.10;;;;;;;;;;5007136;28;20122;-77
2023/12/29 04:40:54;;;;;;;2.72;1.95;;;;;;;;;;5008598;28;20844;-78
2023/12/29 04:43:20;;;;;;;0.08;0.08;;;;;;;;;;5009061;28;20863;-78
2023/12/29 04:45:47;;;;;;;0.10;0.10;;;;;;;;;;5007451;28;20066;-79
2023/12/29 04:48:13;;;;;;;0.10;0.10;;;;;;;;;;5096612;22;20049;-77
2023/12/29 04:50:40;;;;;;;0.10;0.10;;;;;;;;;;5034292;28;20144;-78
2023/12/29 04:53:06;;;;;;;0.10;0.10;;;;;;;;;;5044760;28;20890;-79
2023/12/29 04:55:32;;;;;;;0.10;0.10;;;;;;;;;;5043401;28;20605;-79
2023/12/29 04:57:59;;;;;;;0.10;0.10;;;;;;;;;;5035540;28;20057;-79
2023/12/29 05:00:25;;;;;;;0.08;0.08;;;;;;;;;;5031823;28;20034;-79
2023/12/29 05:02:52;;;;;;;0.08;0.08;;;;;;;;;;5029558;28;20459;-77
2023/12/29 05:05:18;;;;;;;0.10;0.10;;;;;;;;;;5032850;28;20074;-79
2023/12/29 05:07:45;;;;;;;0.08;0.08;;;;;;;;;;5030270;28;20047;-78
2023/12/29 05:10:11;;;;;;;0.00;0.00;;;;;;;;;;5030995;28;20050;-79
2023/12/29 05:12:38;;;;;;;0.10;0.10;;;;;;;;;;5030416;28;20050;-79
2023/12/29 05:15:04;;;;;;;0.65;0.35;;;;;;;;;;5031370;28;20133;-79
2023/12/29 05:17:31;;;;;;;0.10;0.10;;;;;;;;;;5025030;28;20059;-77
2023/12/29 05:19:57;;;;;;;0.10;0.10;;;;;;;;;;5030847;28;20073;-79
2023/12/29 05:22:24;;;;;;;0.08;0.08;;;;;;;;;;5037267;28;20054;-78
2023/12/29 05:24:50;;;;;;;0.10;0.10;;;;;;;;;;5030713;28;20049;-78
2023/12/29 05:27:17;;;;;;;0.10;0.10;;;;;;;;;;5030252;28;20046;-78
2023/12/29 05:29:43;;;;;;;0.10;0.10;;;;;;;;;;5028937;28;20058;-78
2023/12/29 05:32:10;;;;;;;0.10;0.10;;;;;;;;;;5028956;28;20057;-77
2023/12/29 05:34:36;;;;;;;0.10;0.10;;;;;;;;;;5029278;28;20140;-78
2023/12/29 05:37:03;;;;;;;0.10;0.10;;;;;;;;;;5030667;28;20073;-78
2023/12/29 05:39:29;;;;;;;0.00;0.00;;;;;;;;;;5026427;28;20062;-78
2023/12/29 05:41:56;;;;;;;0.10;0.10;;;;;;;;;;5034517;28;20084;-78
2023/12/29 05:44:23;;;;;;;0.10;0.10;;;;;;;;;;5033173;28;20054;-77
2023/12/29 05:46:49;;;;;;;1.55;0.77;;;;;;;;;;5027750;28;20059;-77
2023/12/29 05:49:15;;;;;;;0.10;0.10;;;;;;;;;;5025656;28;20085;-78
2023/12/29 05:51:43;;;;;;;0.10;0.10;;;;;;;;;;5032191;28;20062;-78
2023/12/29 05:54:09;;;;;;;0.10;0.10;;;;;;;;;;5034179;28;20077;-77
2023/12/29 05:56:36;;;;;;;0.10;0.10;;;;;;;;;;5032832;28;20515;-78
2023/12/29 05:59:02;;;;;;;0.10;0.10;;;;;;;;;;5033673;28;20228;-78
2023/12/29 06:01:28;;;;;;;0.30;0.30;;;;;;;;;;5027541;28;20936;-78
2023/12/29 06:03:55;;;;;;;0.10;0.10;;;;;;;;;;5030745;28;20096;-78
2023/12/29 06:06:22;;;;;;;0.10;0.10;;;;;;;;;;5033385;28;20057;-78
2023/12/29 06:08:48;;;;;;;0.10;0.10;;;;;;;;;;5033168;28;20212;-76
2023/12/29 06:11:16;;;;;;;0.10;0.10;;;;;;;;;;5033296;28;20522;-78
2023/12/29 06:13:42;;;;;;;0.10;0.10;;;;;;;;;;5033442;28;20061;-78
2023/12/29 06:16:08;;;;;;;0.10;0.10;;;;;;;;;;5032847;28;20061;-77
2023/12/29 06:18:35;;;;;;;0.10;0.10;;;;;;;;;;5032800;28;20524;-78
2023/12/29 06:21:02;;;;;;;0.10;0.10;;;;;;;;;;5031807;28;20054;-78
2023/12/29 06:23:29;;;;;;;0.10;0.10;;;;;;;;;;5033602;28;20060;-77
2023/12/29 06:25:55;;;;;;;0.10;0.10;;;;;;;;;;5032704;28;20130;-78
2023/12/29 06:28:22;;;;;;;0.00;0.00;;;;;;;;;;5033102;28;20085;-78
2023/12/29 06:30:48;;;;;;;0.20;0.20;;;;;;;;;;5033485;28;20136;-78
2023/12/29 06:33:15;;;;;;;0.10;0.10;;;;;;;;;;5033901;28;20607;-78
2023/12/29 06:35:41;;;;;;;0.10;0.10;;;;;;;;;;5030081;28;20058;-77
2023/12/29 06:38:08;;;;;;;0.10;0.10;;;;;;;;;;5029765;28;20084;-77
2023/12/29 06:40:34;;;;;;;0.00;0.00;;;;;;;;;;5039828;28;20084;-78
2023/12/29 06:43:01;;;;;;;0.10;0.10;;;;;;;;;;5033404;28;20112;-78
2023/12/29 06:45:27;;;;;;;0.10;0.10;;;;;;;;;;5031859;28;20452;-79
2023/12/29 06:47:54;;;;;;;0.05;0.05;;;;;;;;;;5030539;28;20077;-78
2023/12/29 06:50:20;;;;;;;0.10;0.10;;;;;;;;;;5031286;28;20146;-78
2023/12/29 06:52:47;;;;;;;4.53;0.80;;;;;;;;;;5031560;28;20100;-78
2023/12/29 06:55:13;;;;;;;0.10;0.10;;;;;;;;;;5032658;28;20073;-78
2023/12/29 06:57:40;;;;;;;0.15;0.15;;;;;;;;;;5028569;28;20037;-78
2023/12/29 07:00:07;;;;;;;0.10;0.10;;;;;;;;;;5032158;28;20080;-78
2023/12/29 07:02:42;;;;;;;0.20;0.20;;;;;;;;;;5029297;28;20049;-76
2023/12/29 07:05:11;;;;;;;0.10;0.10;;;;;;;;;;5032872;28;20888;-77
2023/12/29 07:07:41;;;;;;;0.00;0.00;;;;;;;;;;5028380;28;20149;-78
2023/12/29 07:10:08;;;;;;;0.10;0.10;;;;;;;;;;5025304;28;20112;-78
2023/12/29 07:12:34;;;;;;;0.10;0.10;;;;;;;;;;5030440;28;20061;-78
2023/12/29 07:15:01;;;;;;;0.10;0.10;;;;;;;;;;5029886;28;20057;-78
2023/12/29 07:17:27;;;;;;;0.10;0.10;;;;;;;;;;5030650;28;20241;-78
2023/12/29 07:19:54;;;;;;;0.20;0.20;;;;;;;;;;5030896;28;20058;-78
2023/12/29 07:22:20;;;;;;;0.20;0.20;;;;;;;;;;5027409;28;20091;-78
2023/12/29 07:24:47;;;;;;;0.00;0.00;;;;;;;;;;5030150;28;20053;-77
2023/12/29 07:27:13;;;;;;;0.00;0.00;;;;;;;;;;5030399;28;20062;-78
2023/12/29 07:29:39;;;;;;;0.15;0.15;;;;;;;;;;5032427;28;20054;-78
2023/12/29 07:32:06;;;;;;;0.52;0.52;;;;;;;;;;5029143;28;20109;-76
2023/12/29 07:34:33;;;;;;;0.35;0.35;;;;;;;;;;5031808;28;20061;-78
2023/12/29 07:37:00;;;;;;;0.10;0.10;;;;;;;;;;5034820;28;20054;-77
2023/12/29 07:39:26;;;;;;;0.10;0.10;;;;;;;;;;5030907;28;20050;-77
2023/12/29 07:41:53;;;;;;;0.10;0.10;;;;;;;;;;5030174;28;20085;-78
2023/12/29 07:44:20;;;;;;;0.00;0.00;;;;;;;;;;5028783;28;20034;-78
2023/12/29 07:46:46;;;;;;;0.00;0.00;;;;;;;;;;5030268;28;20057;-76
2023/12/29 07:49:13;;;;;;;0.10;0.10;;;;;;;;;;5026081;28;20058;-77
2023/12/29 07:51:40;;;;;;;0.00;0.00;;;;;;;;;;5027684;28;20081;-78
2023/12/29 07:54:07;;;;;;;0.10;0.10;;;;;;;;;;5035428;28;20053;-77
2023/12/29 07:56:34;;;;;;;0.10;0.10;;;;;;;;;;5030625;28;20061;-78
2023/12/29 07:59:00;;;;;;;0.10;0.10;;;;;;;;;;5030567;28;20141;-77
2023/12/29 08:01:27;;;;;;;0.10;0.10;;;;;;;;;;5026247;28;20495;-77
2023/12/29 08:03:53;;;;;;;0.10;0.10;;;;;;;;;;5030453;28;20054;-78
2023/12/29 08:06:20;;;;;;;0.10;0.10;;;;;;;;;;5029475;28;20042;-77
2023/12/29 08:08:46;;;;;;;0.10;0.10;;;;;;;;;;5023398;28;20065;-78
2023/12/29 08:11:16;;;;;;;0.20;0.20;;;;;;;;;;5037217;28;20057;-78
2023/12/29 08:13:47;;;;;;;0.10;0.10;;;;;;;;;;5027851;28;20068;-78
2023/12/29 08:16:13;;;;;;;0.10;0.10;;;;;;;;;;5030548;28;20058;-78
2023/12/29 08:18:39;;;;;;;0.10;0.10;;;;;;;;;;5029924;28;20406;-78
2023/12/29 08:21:06;;;;;;;0.10;0.10;;;;;;;;;;5030965;28;20054;-77
2023/12/29 08:23:32;;;;;;;0.10;0.10;;;;;;;;;;5029859;28;20045;-78
2023/12/29 08:26:00;;;;;;;0.10;0.10;;;;;;;;;;5028556;28;20584;-78
2023/12/29 08:28:26;;;;;;;0.10;0.10;;;;;;;;;;5028996;28;20089;-76
2023/12/29 08:30:53;;;;;;;0.10;0.10;;;;;;;;;;5025427;28;20528;-78
2023/12/29 08:33:19;;;;;;;0.10;0.10;;;;;;;;;;5029165;28;20514;-78
2023/12/29 08:35:46;;;;;;;0.10;0.10;;;;;;;;;;5028910;28;20112;-78
2023/12/29 08:38:12;;;;;;;0.10;0.10;;;;;;;;;;5028332;28;20160;-78
2023/12/29 08:40:39;;;;;;;0.05;0.05;;;;;;;;;;5029242;28;20054;-78
2023/12/29 08:43:06;;;;;;;0.08;0.08;;;;;;;;;;5027855;28;20089;-78
2023/12/29 08:45:32;;;;;;;0.10;0.10;;;;;;;;;;5029736;28;20069;-76
2023/12/29 08:47:59;;;;;;;0.10;0.10;;;;;;;;;;5024291;28;20054;-78
2023/12/29 08:50:26;;;;;;;0.10;0.10;;;;;;;;;;5029161;28;20056;-77
2023/12/29 08:52:52;;;;;;;0.10;0.10;;;;;;;;;;5028579;28;20073;-77
2023/12/29 08:55:18;;;;;;;0.10;0.10;;;;;;;;;;5027117;28;20089;-79
2023/12/29 08:57:45;;;;;;;0.05;0.05;;;;;;;;;;5027260;28;20061;-78
2023/12/29 09:00:11;;;;;;;0.20;0.20;;;;;;;;;;5028056;28;20153;-78
2023/12/29 09:02:38;;;;;;;0.50;0.50;;;;;;;;;;5028217;28;20630;-79
2023/12/29 09:05:04;;;;;;;0.10;0.10;;;;;;;;;;5025845;28;20132;-78
2023/12/29 09:07:31;;;;;;;2.00;1.65;;;;;;;;;;5028708;28;20060;-77
2023/12/29 09:09:59;;;;;;;0.45;0.38;;;;;;;;;;5028406;28;20038;-78
2023/12/29 09:12:25;;;;;;;0.10;0.10;;;;;;;;;;5029608;28;20989;-78
2023/12/29 09:14:52;;;;;;;0.10;0.10;;;;;;;;;;5028381;28;20487;-78
2023/12/29 09:18:17;;;;;;;1.45;0.65;;;;;;;;;;5031532;28;20050;-79
2023/12/29 09:21:29;;;;;;;0.10;0.10;;;;;;;;;;5025380;28;20152;-76
2023/12/29 09:23:55;;;;;;;0.10;0.10;;;;;;;;;;5010941;28;20101;-78
2023/12/29 09:26:22;;;;;;;0.10;0.10;;;;;;;;;;5027652;28;20122;-78
2023/12/29 09:28:48;;;;;;;0.10;0.10;;;;;;;;;;5027403;28;20105;-77
2023/12/29 09:31:14;;;;;;;0.10;0.10;;;;;;;;;;5027479;28;20050;-77
2023/12/29 09:33:41;;;;;;;0.10;0.10;;;;;;;;;;5023952;28;20062;-77
2023/12/29 09:36:08;;;;;;;0.10;0.10;;;;;;;;;;5027206;28;20562;-77
2023/12/29 09:38:34;;;;;;;0.10;0.10;;;;;;;;;;5025009;28;20050;-77
2023/12/29 09:41:04;;;;;;;0.10;0.10;;;;;;;;;;5028374;28;20438;-77
2023/12/29 09:43:31;;;;;;;0.10;0.10;;;;;;;;;;5026158;28;20054;-78
2023/12/29 09:45:58;;;;;;;0.10;0.10;;;;;;;;;;5025194;28;20054;-77
2023/12/29 09:48:26;;;;;;;0.10;0.10;;;;;;;;;;5027628;28;20058;-78
2023/12/29 09:50:54;;;;;;;0.20;0.20;;;;;;;;;;5029054;28;20705;-77
2023/12/29 09:53:21;;;;;;;0.10;0.10;;;;;;;;;;5028092;28;20133;-78
2023/12/29 09:55:48;;;;;;;0.20;0.20;;;;;;;;;;5026112;28;20053;-78
2023/12/29 09:58:15;;;;;;;0.20;0.20;;;;;;;;;;5021165;28;20050;-77
2023/12/29 10:00:42;;;;;;;0.10;0.10;;;;;;;;;;5026507;28;20050;-78
2023/12/29 10:03:09;;;;;;;0.10;0.10;;;;;;;;;;5027113;28;20945;-77
2023/12/29 10:05:35;;;;;;;0.25;0.25;;;;;;;;;;5027538;28;20652;-77
2023/12/29 10:08:03;;;;;;;0.10;0.10;;;;;;;;;;5026009;28;20050;-77
2023/12/29 10:10:30;;;;;;;0.10;0.10;;;;;;;;;;5019651;28;20575;-78
2023/12/29 10:12:57;;;;;;;0.00;0.00;;;;;;;;;;5024923;28;20049;-76
2023/12/29 10:15:32;;;;;;;0.10;0.10;;;;;;;;;;5019611;28;20049;-77
2023/12/29 10:17:59;;;;;;;0.10;0.10;;;;;;;;;;5023452;28;20050;-76
2023/12/29 10:20:38;;;;;;;3.00;0.80;;;;;;;;;;5027930;28;20535;-77
2023/12/29 10:23:12;;;;;;;0.10;0.10;;;;;;;;;;5026441;28;20046;-78
2023/12/29 10:25:39;;;;;;;0.15;0.15;;;;;;;;;;5027482;28;20618;-78
2023/12/29 10:28:06;;;;;;;0.10;0.10;;;;;;;;;;5032346;28;20054;-78
2023/12/29 10:30:32;;;;;;;0.10;0.10;;;;;;;;;;5029640;28;20557;-78
2023/12/29 10:33:02;;;;;;;0.10;0.10;;;;;;;;;;5029282;28;20092;-78
2023/12/29 10:35:30;;;;;;;0.10;0.10;;;;;;;;;;5030810;28;20133;-78
2023/12/29 10:38:10;;;;;;;0.10;0.10;;;;;;;;;;5030614;28;20054;-76
2023/12/29 10:40:37;;;;;;;0.10;0.10;;;;;;;;;;5030688;28;20153;-78
2023/12/29 10:43:08;;;;;;;0.10;0.10;;;;;;;;;;5030458;28;20567;-78
2023/12/29 10:45:36;;;;;;;0.10;0.10;;;;;;;;;;5025868;28;20045;-78
2023/12/29 10:48:03;;;;;;;0.47;0.47;;;;;;;;;;5027540;28;20061;-76
2023/12/29 10:50:29;;;;;;;0.10;0.10;;;;;;;;;;5028775;28;20053;-78
2023/12/29 10:53:14;;;;;;;0.10;0.10;;;;;;;;;;5026318;28;20056;-78
2023/12/29 10:55:41;;;;;;;0.10;0.10;;;;;;;;;;5027997;28;20124;-78
2023/12/29 10:58:08;;;;;;;0.10;0.10;;;;;;;;;;5026170;28;20050;-78
2023/12/29 11:00:34;;;;;;;0.10;0.10;;;;;;;;;;5027184;28;20061;-78
2023/12/29 11:03:01;;;;;;;0.10;0.10;;;;;;;;;;5028980;28;20061;-77
2023/12/29 11:05:28;;;;;;;0.10;0.10;;;;;;;;;;5027998;28;20104;-78
2023/12/29 11:07:55;;;;;;;0.10;0.10;;;;;;;;;;5026602;28;20053;-78
2023/12/29 11:10:21;;;;;;;0.10;0.10;;;;;;;;;;5028889;28;20081;-78
2023/12/29 11:12:48;;;;;;;0.17;0.17;;;;;;;;;;5028420;28;20598;-76
2023/12/29 11:15:15;;;;;;;0.10;0.10;;;;;;;;;;5028096;28;20053;-78
2023/12/29 11:17:49;;;;;;;0.10;0.10;;;;;;;;;;5020310;28;20075;-76
2023/12/29 11:20:16;;;;;;;0.10;0.10;;;;;;;;;;5024160;28;20074;-80
2023/12/29 11:22:43;;;;;;;0.10;0.10;;;;;;;;;;5031526;28;20081;-78
2023/12/29 11:25:10;;;;;;;0.50;0.50;;;;;;;;;;5030720;28;20050;-79
2023/12/29 11:27:36;;;;;;;0.10;0.10;;;;;;;;;;5028865;28;20080;-78
2023/12/29 11:30:04;;;;;;;0.38;0.38;;;;;;;;;;5027978;28;20080;-77
2023/12/29 11:32:49;;;;;;;0.10;0.10;;;;;;;;;;5026158;28;22313;-78
2023/12/29 11:35:26;;;;;;;0.10;0.10;;;;;;;;;;5024171;28;20058;-77
2023/12/29 11:38:16;;;;;;;0.10;0.10;;;;;;;;;;5019150;28;20083;-78
2023/12/29 11:40:50;;;;;;;0.10;0.10;;;;;;;;;;5026280;28;20619;-78
2023/12/29 11:43:17;;;;;;;0.10;0.10;;;;;;;;;;5027033;28;20061;-78
2023/12/29 11:45:44;;;;;;;0.10;0.10;;;;;;;;;;5027232;28;20613;-78
2023/12/29 11:48:11;;;;;;;0.10;0.10;;;;;;;;;;5024020;28;20073;-78
2023/12/29 11:50:40;;;;;;;0.10;0.10;;;;;;;;;;5026498;28;20057;-78
2023/12/29 11:53:07;;;;;;;0.10;0.10;;;;;;;;;;5026745;28;20054;-78
2023/12/29 11:55:35;;;;;;;0.10;0.10;;;;;;;;;;5024442;28;20108;-78
2023/12/29 11:58:04;;;;;;;0.10;0.10;;;;;;;;;;5025857;28;20622;-78
2023/12/29 12:00:40;;;;;;;0.10;0.10;;;;;;;;;;5027786;28;20085;-76
2023/12/29 12:03:16;;;;;;;0.10;0.10;;;;;;;;;;5027409;28;20050;-76
2023/12/29 12:05:50;;;;;;;0.10;0.10;;;;;;;;;;5028908;28;20184;-77
2023/12/29 12:08:29;;;;;;;0.10;0.10;;;;;;;;;;5032129;28;20122;-78
2023/12/29 12:10:56;;;;;;;0.10;0.10;;;;;;;;;;5030605;28;20112;-78
2023/12/29 12:13:42;;;;;;;0.10;0.10;;;;;;;;;;5031687;28;20038;-78
2023/12/29 12:16:09;;;;;;;0.10;0.10;;;;;;;;;;5026935;28;20042;-77
2023/12/29 12:18:37;;;;;;;0.10;0.10;;;;;;;;;;5028863;28;20060;-79
2023/12/29 12:21:04;;;;;;;0.10;0.10;;;;;;;;;;5030945;28;20054;-77
2023/12/29 12:23:33;;;;;;;0.10;0.10;;;;;;;;;;5042692;28;21008;-79
2023/12/29 12:26:01;;;;;;;0.10;0.10;;;;;;;;;;5035334;28;20054;-78
2023/12/29 12:28:27;;;;;;;0.10;0.10;;;;;;;;;;5024558;28;21012;-79
2023/12/29 12:31:04;;;;;;;0.10;0.10;;;;;;;;;;5028468;28;20490;-78
2023/12/29 12:33:32;;;;;;;0.10;0.10;;;;;;;;;;5030352;28;20050;-76
2023/12/29 12:35:59;;;;;;;0.10;0.10;;;;;;;;;;5021489;28;20060;-79
2023/12/29 12:38:27;;;;;;;0.10;0.10;;;;;;;;;;5027587;28;20512;-78
2023/12/29 12:40:53;;;;;;;0.20;0.20;;;;;;;;;;5027387;28;20050;-76
2023/12/29 12:43:24;;;;;;;0.10;0.10;;;;;;;;;;5029403;28;20061;-76
2023/12/29 12:45:50;;;;;;;;;;;;;;;;;;5029858;28;20153;-78
2023/12/29 12:48:21;;;;;;;0.10;0.10;;;;;;;;;;5027735;28;38480;-78
2023/12/29 12:50:48;;;;;;;0.10;0.10;;;;;;;;;;5026667;28;20583;-76
2023/12/29 12:53:20;;;;;;;0.10;0.10;;;;;;;;;;5031160;28;21269;-78
2023/12/29 12:55:47;;;;;;;0.10;0.10;;;;;;;;;;5026710;28;20061;-78
2023/12/29 12:58:14;;;;;;;0.77;0.77;;;;;;;;;;5029067;28;20139;-79
2023/12/29 13:00:41;;;;;;;0.10;0.10;;;;;;;;;;5030438;28;20136;-79
2023/12/29 13:03:08;;;;;;;0.10;0.10;;;;;;;;;;5028321;28;20106;-78
2023/12/29 13:05:36;;;;;;;0.80;0.47;;;;;;;;;;5030039;28;20148;-77
2023/12/29 13:08:03;;;;;;;0.10;0.10;;;;;;;;;;5031700;28;20929;-79
2023/12/29 13:10:30;;;;;;;0.20;0.20;;;;;;;;;;5027268;28;20572;-78
2023/12/29 13:12:56;;;;;;;0.10;0.10;;;;;;;;;;5029188;28;20054;-79
2023/12/29 13:15:23;;;;;;;0.10;0.10;;;;;;;;;;5031596;28;20060;-76
2023/12/29 13:17:50;;;;;;;0.10;0.10;;;;;;;;;;5023610;28;20081;-78
2023/12/29 13:20:17;;;;;;;0.10;0.10;;;;;;;;;;5030755;28;20060;-79
2023/12/29 13:22:46;;;;;;;3.65;0.55;;;;;;;;;;5030455;28;20089;-78
2023/12/29 13:25:17;;;;;;;0.10;0.10;;;;;;;;;;5029625;28;20054;-78
2023/12/29 13:27:43;;;;;;;0.10;0.10;;;;;;;;;;5031490;28;20066;-78
2023/12/29 13:30:12;;;;;;;0.10;0.10;;;;;;;;;;5026790;28;20054;-76
2023/12/29 13:32:38;;;;;;;0.10;0.10;;;;;;;;;;5028256;28;20057;-77
2023/12/29 13:35:08;;;;;;;0.10;0.10;;;;;;;;;;5029190;28;20054;-78
2023/12/29 13:37:47;;;;;;;0.10;0.10;;;;;;;;;;5028016;28;20058;-76
2023/12/29 13:40:32;;;;;;;0.10;0.10;;;;;;;;;;5027335;28;20957;-78
2023/12/29 13:43:01;;;;;;;0.10;0.10;;;;;;;;;;5028266;28;20065;-76
2023/12/29 13:45:28;;;;;;;0.10;0.10;;;;;;;;;;5029703;28;20053;-79
2023/12/29 13:47:55;;;;;;;0.10;0.10;;;;;;;;;;5027292;28;20085;-75
2023/12/29 13:50:22;;;;;;;0.10;0.10;;;;;;;;;;5031738;28;20038;-78
2023/12/29 13:52:49;;;;;;;0.10;0.10;;;;;;;;;;5033144;28;20066;-79
2023/12/29 13:55:25;;;;;;;0.10;0.10;;;;;;;;;;5025333;28;20077;-76
2023/12/29 13:57:52;;;;;;;0.10;0.10;;;;;;;;;;5024197;28;20050;-76
2023/12/29 14:00:23;;;;;;;0.10;0.10;;;;;;;;;;5028690;28;20046;-79
2023/12/29 14:02:55;;;;;;;0.10;0.10;;;;;;;;;;5030215;28;21115;-79
2023/12/29 14:05:27;;;;;;;0.10;0.10;;;;;;;;;;5031352;28;20077;-79
2023/12/29 14:08:05;;;;;;;0.10;0.10;;;;;;;;;;5032266;28;20094;-76
2023/12/29 14:10:32;;;;;;;0.10;0.10;;;;;;;;;;5029981;28;20136;-78
2023/12/29 14:13:04;;;;;;;0.10;0.10;;;;;;;;;;5029296;28;20141;-78
2023/12/29 14:15:35;;;;;;;0.10;0.10;;;;;;;;;;5027962;28;20046;-76
2023/12/29 14:18:05;;;;;;;0.28;0.28;;;;;;;;;;5029779;28;20050;-79
2023/12/29 14:20:33;;;;;;;0.10;0.10;;;;;;;;;;5030286;28;20531;-78
2023/12/29 14:23:04;;;;;;;0.43;0.30;;;;;;;;;;5029329;28;20523;-79
2023/12/29 14:25:35;;;;;;;0.10;0.10;;;;;;;;;;5029455;28;20058;-78
2023/12/29 14:28:02;;;;;;;0.10;0.10;;;;;;;;;;5031637;28;20096;-77
2023/12/29 14:30:31;;;;;;;0.10;0.10;;;;;;;;;;5028157;28;20064;-78
2023/12/29 14:32:58;;;;;;;0.10;0.10;;;;;;;;;;5027696;28;20136;-79
2023/12/29 14:35:24;;;;;;;0.10;0.10;;;;;;;;;;5028938;28;20137;-79
2023/12/29 14:37:51;;;;;;;0.10;0.10;;;;;;;;;;5029465;28;20062;-76
2023/12/29 14:40:17;;;;;;;0.30;0.30;;;;;;;;;;5029149;28;20104;-78
2023/12/29 14:42:43;;;;;;;0.10;0.10;;;;;;;;;;5028497;28;20082;-78
2023/12/29 14:45:10;;;;;;;0.10;0.10;;;;;;;;;;5029979;28;20108;-77
2023/12/29 14:47:36;;;;;;;0.10;0.10;;;;;;;;;;5030621;28;20294;-78